Weather at John Glenn Columbus International Airport

Public forecast

Using degrees Fahrenheit for public forecast. Weather courtesy of forecast.io.

Current aviation weather report (METAR) for John Glenn Columbus International Airport

Report is more than 6 hours old.

2022/11/14 14:51 (retrieved 2 years ago)

KCMH 141451Z 00000KT 10SM BKN042 03/M07 A3040 RMK AO2 SLP300 T00281072 50006

Aviation forecast (TAF) for John Glenn Columbus International Airport

Forecast is more than 12 hours old.

2023/02/22 20:15 Ammendment (retrieved 1 year ago)

TAF AMD KCMH 222012Z 2220/2318 13006KT P6SM VCSH SCT050 BKN070 FM222100 19019G32KT P6SM VCSH BKN050 WS020/22040KT FM230200 20020G36KT 6SM -SHRA BR BKN050 WS020/21045KT FM230400 22017G31KT 4SM -SHRA BR OVC025 WS020/24045KT FM230600 24016G30KT P6SM VCSH BKN025 FM230800 24013G22KT P6SM SCT050 FM231300 21009KT P6SM SCT025